sensor_id;sensor_type;location;lat;lon;timestamp;P1;durP1;ratioP1;P2;durP2;ratioP2
10096;SDS011;5087;42.662;23.466;2024-02-23T00:01:08;1.60;;;1.60;;
10096;SDS011;5087;42.662;23.466;2024-02-23T00:03:43;1.60;;;1.60;;
10096;SDS011;5087;42.662;23.466;2024-02-23T00:06:10;1.60;;;1.60;;
10096;SDS011;5087;42.662;23.466;2024-02-23T00:08:40;1.37;;;1.37;;
10096;SDS011;5087;42.662;23.466;2024-02-23T00:11:07;1.50;;;1.50;;
10096;SDS011;5087;42.662;23.466;2024-02-23T00:13:34;1.70;;;1.70;;
10096;SDS011;5087;42.662;23.466;2024-02-23T00:16:01;1.90;;;1.90;;
10096;SDS011;5087;42.662;23.466;2024-02-23T00:18:29;1.70;;;1.70;;
10096;SDS011;5087;42.662;23.466;2024-02-23T00:20:56;1.60;;;1.60;;
10096;SDS011;5087;42.662;23.466;2024-02-23T00:23:23;1.80;;;1.80;;
10096;SDS011;5087;42.662;23.466;2024-02-23T00:25:50;1.60;;;1.60;;
10096;SDS011;5087;42.662;23.466;2024-02-23T00:28:17;1.60;;;1.60;;
10096;SDS011;5087;42.662;23.466;2024-02-23T00:30:47;1.63;;;1.63;;
10096;SDS011;5087;42.662;23.466;2024-02-23T00:33:14;1.70;;;1.70;;
10096;SDS011;5087;42.662;23.466;2024-02-23T00:35:45;1.70;;;1.70;;
10096;SDS011;5087;42.662;23.466;2024-02-23T00:38:12;1.70;;;1.70;;
10096;SDS011;5087;42.662;23.466;2024-02-23T00:40:38;1.70;;;1.70;;
10096;SDS011;5087;42.662;23.466;2024-02-23T00:43:05;1.77;;;1.77;;
10096;SDS011;5087;42.662;23.466;2024-02-23T00:45:32;1.70;;;1.70;;
10096;SDS011;5087;42.662;23.466;2024-02-23T00:47:59;1.60;;;1.60;;
10096;SDS011;5087;42.662;23.466;2024-02-23T00:50:26;1.67;;;1.67;;
10096;SDS011;5087;42.662;23.466;2024-02-23T00:52:54;1.50;;;1.50;;
10096;SDS011;5087;42.662;23.466;2024-02-23T00:55:22;1.50;;;1.50;;
10096;SDS011;5087;42.662;23.466;2024-02-23T00:57:50;1.43;;;1.43;;
10096;SDS011;5087;42.662;23.466;2024-02-23T01:00:17;1.50;;;1.50;;
10096;SDS011;5087;42.662;23.466;2024-02-23T01:02:44;1.53;;;1.53;;
10096;SDS011;5087;42.662;23.466;2024-02-23T01:05:11;1.50;;;1.50;;
10096;SDS011;5087;42.662;23.466;2024-02-23T01:07:38;1.80;;;1.80;;
10096;SDS011;5087;42.662;23.466;2024-02-23T01:10:07;1.83;;;1.83;;
10096;SDS011;5087;42.662;23.466;2024-02-23T01:12:34;1.90;;;1.90;;
10096;SDS011;5087;42.662;23.466;2024-02-23T01:15:02;1.93;;;1.93;;
10096;SDS011;5087;42.662;23.466;2024-02-23T01:17:28;1.90;;;1.90;;
10096;SDS011;5087;42.662;23.466;2024-02-23T01:19:55;2.03;;;2.03;;
10096;SDS011;5087;42.662;23.466;2024-02-23T01:22:22;2.00;;;2.00;;
10096;SDS011;5087;42.662;23.466;2024-02-23T01:24:49;2.20;;;2.20;;
10096;SDS011;5087;42.662;23.466;2024-02-23T01:27:17;2.10;;;2.10;;
10096;SDS011;5087;42.662;23.466;2024-02-23T01:29:44;2.17;;;2.17;;
10096;SDS011;5087;42.662;23.466;2024-02-23T01:32:10;1.30;;;1.30;;
10096;SDS011;5087;42.662;23.466;2024-02-23T01:34:36;1.37;;;1.37;;
10096;SDS011;5087;42.662;23.466;2024-02-23T01:37:05;1.50;;;1.50;;
10096;SDS011;5087;42.662;23.466;2024-02-23T01:39:32;1.50;;;1.50;;
10096;SDS011;5087;42.662;23.466;2024-02-23T01:41:59;1.60;;;1.60;;
10096;SDS011;5087;42.662;23.466;2024-02-23T01:44:27;1.40;;;1.40;;
10096;SDS011;5087;42.662;23.466;2024-02-23T01:46:54;1.60;;;1.60;;
10096;SDS011;5087;42.662;23.466;2024-02-23T01:49:22;1.80;;;1.80;;
10096;SDS011;5087;42.662;23.466;2024-02-23T01:51:55;1.60;;;1.60;;
10096;SDS011;5087;42.662;23.466;2024-02-23T01:54:21;1.70;;;1.70;;
10096;SDS011;5087;42.662;23.466;2024-02-23T01:56:49;1.70;;;1.70;;
10096;SDS011;5087;42.662;23.466;2024-02-23T01:59:17;1.73;;;1.73;;
10096;SDS011;5087;42.662;23.466;2024-02-23T02:01:46;1.60;;;1.60;;
10096;SDS011;5087;42.662;23.466;2024-02-23T02:04:13;1.80;;;1.80;;
10096;SDS011;5087;42.662;23.466;2024-02-23T02:06:40;1.70;;;1.70;;
10096;SDS011;5087;42.662;23.466;2024-02-23T02:09:07;1.50;;;1.50;;
10096;SDS011;5087;42.662;23.466;2024-02-23T02:11:34;1.50;;;1.50;;
10096;SDS011;5087;42.662;23.466;2024-02-23T02:14:01;1.30;;;1.30;;
10096;SDS011;5087;42.662;23.466;2024-02-23T02:16:27;1.50;;;1.50;;
10096;SDS011;5087;42.662;23.466;2024-02-23T02:18:56;1.47;;;1.47;;
10096;SDS011;5087;42.662;23.466;2024-02-23T02:21:23;1.20;;;1.20;;
10096;SDS011;5087;42.662;23.466;2024-02-23T02:23:50;1.20;;;1.20;;
10096;SDS011;5087;42.662;23.466;2024-02-23T02:26:17;1.00;;;1.00;;
10096;SDS011;5087;42.662;23.466;2024-02-23T02:28:44;0.90;;;0.90;;
10096;SDS011;5087;42.662;23.466;2024-02-23T02:31:11;1.20;;;1.20;;
10096;SDS011;5087;42.662;23.466;2024-02-23T02:33:39;1.20;;;1.20;;
10096;SDS011;5087;42.662;23.466;2024-02-23T02:36:08;1.30;;;1.30;;
10096;SDS011;5087;42.662;23.466;2024-02-23T02:38:35;1.60;;;1.60;;
10096;SDS011;5087;42.662;23.466;2024-02-23T02:41:02;1.50;;;1.50;;
10096;SDS011;5087;42.662;23.466;2024-02-23T02:43:28;1.40;;;1.40;;
10096;SDS011;5087;42.662;23.466;2024-02-23T02:45:55;1.40;;;1.40;;
10096;SDS011;5087;42.662;23.466;2024-02-23T02:48:22;1.40;;;1.40;;
10096;SDS011;5087;42.662;23.466;2024-02-23T02:50:49;1.30;;;1.30;;
10096;SDS011;5087;42.662;23.466;2024-02-23T02:53:18;1.40;;;1.40;;
10096;SDS011;5087;42.662;23.466;2024-02-23T02:55:45;1.80;;;1.80;;
10096;SDS011;5087;42.662;23.466;2024-02-23T02:58:12;1.80;;;1.80;;
10096;SDS011;5087;42.662;23.466;2024-02-23T03:00:39;1.60;;;1.60;;
10096;SDS011;5087;42.662;23.466;2024-02-23T03:03:06;1.67;;;1.67;;
10096;SDS011;5087;42.662;23.466;2024-02-23T03:05:33;1.80;;;1.80;;
10096;SDS011;5087;42.662;23.466;2024-02-23T03:08:00;1.60;;;1.60;;
10096;SDS011;5087;42.662;23.466;2024-02-23T03:10:29;1.63;;;1.63;;
10096;SDS011;5087;42.662;23.466;2024-02-23T03:12:55;1.50;;;1.50;;
10096;SDS011;5087;42.662;23.466;2024-02-23T03:15:22;1.60;;;1.60;;
10096;SDS011;5087;42.662;23.466;2024-02-23T03:17:49;1.67;;;1.67;;
10096;SDS011;5087;42.662;23.466;2024-02-23T03:20:16;1.80;;;1.80;;
10096;SDS011;5087;42.662;23.466;2024-02-23T03:22:43;1.60;;;1.60;;
10096;SDS011;5087;42.662;23.466;2024-02-23T03:25:10;1.80;;;1.80;;
10096;SDS011;5087;42.662;23.466;2024-02-23T03:27:38;1.70;;;1.70;;
10096;SDS011;5087;42.662;23.466;2024-02-23T03:30:05;1.60;;;1.60;;
10096;SDS011;5087;42.662;23.466;2024-02-23T03:32:33;1.50;;;1.50;;
10096;SDS011;5087;42.662;23.466;2024-02-23T03:35:02;1.40;;;1.40;;
10096;SDS011;5087;42.662;23.466;2024-02-23T03:37:29;1.50;;;1.50;;
10096;SDS011;5087;42.662;23.466;2024-02-23T03:39:56;1.30;;;1.30;;
10096;SDS011;5087;42.662;23.466;2024-02-23T03:42:23;1.40;;;1.40;;
10096;SDS011;5087;42.662;23.466;2024-02-23T03:44:51;1.57;;;1.57;;
10096;SDS011;5087;42.662;23.466;2024-02-23T03:47:18;1.30;;;1.30;;
10096;SDS011;5087;42.662;23.466;2024-02-23T03:49:45;1.30;;;1.30;;
10096;SDS011;5087;42.662;23.466;2024-02-23T03:52:12;1.50;;;1.50;;
10096;SDS011;5087;42.662;23.466;2024-02-23T03:54:38;1.60;;;1.60;;
10096;SDS011;5087;42.662;23.466;2024-02-23T03:57:06;1.40;;;1.40;;
10096;SDS011;5087;42.662;23.466;2024-02-23T03:59:35;1.47;;;1.47;;
10096;SDS011;5087;42.662;23.466;2024-02-23T04:02:05;1.70;;;1.70;;
10096;SDS011;5087;42.662;23.466;2024-02-23T04:04:32;1.50;;;1.50;;
10096;SDS011;5087;42.662;23.466;2024-02-23T04:06:59;1.40;;;1.40;;
10096;SDS011;5087;42.662;23.466;2024-02-23T04:09:25;1.50;;;1.50;;
10096;SDS011;5087;42.662;23.466;2024-02-23T04:11:52;1.30;;;1.30;;
10096;SDS011;5087;42.662;23.466;2024-02-23T04:14:19;1.40;;;1.40;;
10096;SDS011;5087;42.662;23.466;2024-02-23T04:16:46;1.40;;;1.40;;
10096;SDS011;5087;42.662;23.466;2024-02-23T04:19:14;1.40;;;1.40;;
10096;SDS011;5087;42.662;23.466;2024-02-23T04:21:41;1.70;;;1.70;;
10096;SDS011;5087;42.662;23.466;2024-02-23T04:24:08;1.50;;;1.50;;
10096;SDS011;5087;42.662;23.466;2024-02-23T04:26:35;1.40;;;1.40;;
10096;SDS011;5087;42.662;23.466;2024-02-23T04:29:02;1.40;;;1.40;;
10096;SDS011;5087;42.662;23.466;2024-02-23T04:31:28;1.60;;;1.60;;
10096;SDS011;5087;42.662;23.466;2024-02-23T04:33:55;1.57;;;1.57;;
10096;SDS011;5087;42.662;23.466;2024-02-23T04:36:24;1.30;;;1.30;;
10096;SDS011;5087;42.662;23.466;2024-02-23T04:38:54;1.30;;;1.30;;
10096;SDS011;5087;42.662;23.466;2024-02-23T04:41:20;1.23;;;1.23;;
10096;SDS011;5087;42.662;23.466;2024-02-23T04:43:47;1.20;;;1.20;;
10096;SDS011;5087;42.662;23.466;2024-02-23T04:46:19;1.10;;;1.10;;
10096;SDS011;5087;42.662;23.466;2024-02-23T04:48:46;1.10;;;1.10;;
10096;SDS011;5087;42.662;23.466;2024-02-23T04:51:13;1.10;;;1.10;;
10096;SDS011;5087;42.662;23.466;2024-02-23T04:53:42;1.10;;;1.10;;
10096;SDS011;5087;42.662;23.466;2024-02-23T04:56:08;1.10;;;1.10;;
10096;SDS011;5087;42.662;23.466;2024-02-23T04:58:44;1.17;;;1.17;;
10096;SDS011;5087;42.662;23.466;2024-02-23T05:01:19;1.20;;;1.20;;
10096;SDS011;5087;42.662;23.466;2024-02-23T05:03:46;0.90;;;0.90;;
10096;SDS011;5087;42.662;23.466;2024-02-23T05:06:13;0.90;;;0.90;;
10096;SDS011;5087;42.662;23.466;2024-02-23T05:08:44;0.70;;;0.70;;
10096;SDS011;5087;42.662;23.466;2024-02-23T05:11:13;1.00;;;1.00;;
10096;SDS011;5087;42.662;23.466;2024-02-23T05:13:40;1.00;;;1.00;;
10096;SDS011;5087;42.662;23.466;2024-02-23T05:16:07;1.00;;;1.00;;
10096;SDS011;5087;42.662;23.466;2024-02-23T05:18:34;0.90;;;0.90;;
10096;SDS011;5087;42.662;23.466;2024-02-23T05:21:01;1.00;;;1.00;;
10096;SDS011;5087;42.662;23.466;2024-02-23T05:23:28;1.10;;;1.10;;
10096;SDS011;5087;42.662;23.466;2024-02-23T05:25:56;0.80;;;0.80;;
10096;SDS011;5087;42.662;23.466;2024-02-23T05:28:25;0.80;;;0.80;;
10096;SDS011;5087;42.662;23.466;2024-02-23T05:30:55;0.70;;;0.70;;
10096;SDS011;5087;42.662;23.466;2024-02-23T05:33:23;0.70;;;0.70;;
10096;SDS011;5087;42.662;23.466;2024-02-23T05:35:50;0.70;;;0.70;;
10096;SDS011;5087;42.662;23.466;2024-02-23T05:38:17;0.80;;;0.80;;
10096;SDS011;5087;42.662;23.466;2024-02-23T05:40:52;0.90;;;0.90;;
10096;SDS011;5087;42.662;23.466;2024-02-23T05:43:22;0.90;;;0.90;;
10096;SDS011;5087;42.662;23.466;2024-02-23T05:45:49;0.90;;;0.90;;
10096;SDS011;5087;42.662;23.466;2024-02-23T05:48:16;1.00;;;1.00;;
10096;SDS011;5087;42.662;23.466;2024-02-23T05:50:46;0.90;;;0.90;;
10096;SDS011;5087;42.662;23.466;2024-02-23T05:53:13;1.00;;;1.00;;
10096;SDS011;5087;42.662;23.466;2024-02-23T05:55:41;1.00;;;1.00;;
10096;SDS011;5087;42.662;23.466;2024-02-23T05:58:09;1.30;;;1.30;;
10096;SDS011;5087;42.662;23.466;2024-02-23T06:00:40;1.40;;;1.40;;
10096;SDS011;5087;42.662;23.466;2024-02-23T06:03:07;1.40;;;1.40;;
10096;SDS011;5087;42.662;23.466;2024-02-23T06:05:34;1.60;;;1.60;;
10096;SDS011;5087;42.662;23.466;2024-02-23T06:08:01;1.90;;;1.90;;
10096;SDS011;5087;42.662;23.466;2024-02-23T06:10:28;2.00;;;2.00;;
10096;SDS011;5087;42.662;23.466;2024-02-23T06:12:55;2.30;;;2.30;;
10096;SDS011;5087;42.662;23.466;2024-02-23T06:15:22;2.40;;;2.40;;
10096;SDS011;5087;42.662;23.466;2024-02-23T06:17:50;2.10;;;2.10;;
10096;SDS011;5087;42.662;23.466;2024-02-23T06:20:21;2.40;;;2.40;;
10096;SDS011;5087;42.662;23.466;2024-02-23T06:22:48;3.00;;;3.00;;
10096;SDS011;5087;42.662;23.466;2024-02-23T06:25:21;3.10;;;3.10;;
10096;SDS011;5087;42.662;23.466;2024-02-23T06:27:49;3.17;;;3.17;;
10096;SDS011;5087;42.662;23.466;2024-02-23T06:30:16;3.30;;;3.30;;
10096;SDS011;5087;42.662;23.466;2024-02-23T06:32:50;3.30;;;3.30;;
10096;SDS011;5087;42.662;23.466;2024-02-23T06:35:17;3.50;;;3.50;;
10096;SDS011;5087;42.662;23.466;2024-02-23T06:37:44;3.30;;;3.30;;
10096;SDS011;5087;42.662;23.466;2024-02-23T06:40:11;4.80;;;4.70;;
10096;SDS011;5087;42.662;23.466;2024-02-23T06:42:43;4.83;;;4.73;;
10096;SDS011;5087;42.662;23.466;2024-02-23T06:45:10;4.40;;;4.30;;
10096;SDS011;5087;42.662;23.466;2024-02-23T06:47:37;4.63;;;4.53;;
10096;SDS011;5087;42.662;23.466;2024-02-23T06:50:08;4.20;;;4.10;;
10096;SDS011;5087;42.662;23.466;2024-02-23T06:52:38;3.60;;;3.60;;
10096;SDS011;5087;42.662;23.466;2024-02-23T06:55:09;3.30;;;3.30;;
10096;SDS011;5087;42.662;23.466;2024-02-23T06:57:38;3.20;;;3.20;;
10096;SDS011;5087;42.662;23.466;2024-02-23T07:00:06;3.50;;;3.50;;
10096;SDS011;5087;42.662;23.466;2024-02-23T07:02:39;3.47;;;3.47;;
10096;SDS011;5087;42.662;23.466;2024-02-23T07:05:08;3.40;;;3.40;;
10096;SDS011;5087;42.662;23.466;2024-02-23T07:07:35;3.80;;;3.80;;
10096;SDS011;5087;42.662;23.466;2024-02-23T07:10:11;3.60;;;3.60;;
10096;SDS011;5087;42.662;23.466;2024-02-23T07:12:39;3.53;;;3.53;;
10096;SDS011;5087;42.662;23.466;2024-02-23T07:15:06;3.80;;;3.80;;
10096;SDS011;5087;42.662;23.466;2024-02-23T07:17:39;4.20;;;4.10;;
10096;SDS011;5087;42.662;23.466;2024-02-23T07:20:10;4.50;;;4.40;;
10096;SDS011;5087;42.662;23.466;2024-02-23T07:22:37;4.40;;;4.30;;
10096;SDS011;5087;42.662;23.466;2024-02-23T07:25:05;4.57;;;4.47;;
10096;SDS011;5087;42.662;23.466;2024-02-23T07:27:32;4.70;;;4.60;;
10096;SDS011;5087;42.662;23.466;2024-02-23T07:29:59;5.10;;;5.00;;
10096;SDS011;5087;42.662;23.466;2024-02-23T07:32:30;5.10;;;5.00;;
10096;SDS011;5087;42.662;23.466;2024-02-23T07:34:59;5.47;;;5.37;;
10096;SDS011;5087;42.662;23.466;2024-02-23T07:37:30;4.93;;;4.83;;
10096;SDS011;5087;42.662;23.466;2024-02-23T07:40:03;4.60;;;4.50;;
10096;SDS011;5087;42.662;23.466;2024-02-23T07:42:48;4.50;;;4.40;;
10096;SDS011;5087;42.662;23.466;2024-02-23T07:45:15;4.33;;;4.23;;
10096;SDS011;5087;42.662;23.466;2024-02-23T07:47:45;4.50;;;4.40;;
10096;SDS011;5087;42.662;23.466;2024-02-23T07:50:12;4.10;;;4.00;;
10096;SDS011;5087;42.662;23.466;2024-02-23T07:52:43;3.60;;;3.60;;
10096;SDS011;5087;42.662;23.466;2024-02-23T07:55:11;3.20;;;3.20;;
10096;SDS011;5087;42.662;23.466;2024-02-23T07:57:44;3.20;;;3.20;;
10096;SDS011;5087;42.662;23.466;2024-02-23T08:00:16;3.13;;;3.13;;
10096;SDS011;5087;42.662;23.466;2024-02-23T08:02:43;3.27;;;3.27;;
10096;SDS011;5087;42.662;23.466;2024-02-23T08:05:14;3.40;;;3.40;;
10096;SDS011;5087;42.662;23.466;2024-02-23T08:07:46;3.40;;;3.40;;
10096;SDS011;5087;42.662;23.466;2024-02-23T08:10:13;3.30;;;3.30;;
10096;SDS011;5087;42.662;23.466;2024-02-23T08:12:41;2.67;;;2.67;;
10096;SDS011;5087;42.662;23.466;2024-02-23T08:15:08;2.90;;;2.90;;
10096;SDS011;5087;42.662;23.466;2024-02-23T08:17:38;2.80;;;2.80;;
10096;SDS011;5087;42.662;23.466;2024-02-23T08:20:08;2.90;;;2.90;;
10096;SDS011;5087;42.662;23.466;2024-02-23T08:22:35;2.90;;;2.90;;
10096;SDS011;5087;42.662;23.466;2024-02-23T08:25:04;3.10;;;3.10;;
10096;SDS011;5087;42.662;23.466;2024-02-23T08:27:31;3.00;;;3.00;;
10096;SDS011;5087;42.662;23.466;2024-02-23T08:29:58;2.90;;;2.90;;
10096;SDS011;5087;42.662;23.466;2024-02-23T08:32:25;2.80;;;2.80;;
10096;SDS011;5087;42.662;23.466;2024-02-23T08:34:52;2.70;;;2.70;;
10096;SDS011;5087;42.662;23.466;2024-02-23T08:37:24;2.80;;;2.80;;
10096;SDS011;5087;42.662;23.466;2024-02-23T08:40:04;2.60;;;2.60;;
10096;SDS011;5087;42.662;23.466;2024-02-23T08:42:39;2.80;;;2.80;;
10096;SDS011;5087;42.662;23.466;2024-02-23T08:45:10;2.40;;;2.40;;
10096;SDS011;5087;42.662;23.466;2024-02-23T08:47:48;2.90;;;2.90;;
10096;SDS011;5087;42.662;23.466;2024-02-23T08:50:18;3.30;;;3.30;;
10096;SDS011;5087;42.662;23.466;2024-02-23T08:52:45;3.40;;;3.40;;
10096;SDS011;5087;42.662;23.466;2024-02-23T08:55:19;3.40;;;3.40;;
10096;SDS011;5087;42.662;23.466;2024-02-23T08:57:49;3.30;;;3.30;;
10096;SDS011;5087;42.662;23.466;2024-02-23T09:00:26;3.37;;;3.37;;
10096;SDS011;5087;42.662;23.466;2024-02-23T09:02:54;3.10;;;3.10;;
10096;SDS011;5087;42.662;23.466;2024-02-23T09:05:23;3.00;;;3.00;;
10096;SDS011;5087;42.662;23.466;2024-02-23T09:07:50;2.13;;;2.13;;
10096;SDS011;5087;42.662;23.466;2024-02-23T09:10:20;2.20;;;2.20;;
10096;SDS011;5087;42.662;23.466;2024-02-23T09:12:46;2.93;;;2.93;;
10096;SDS011;5087;42.662;23.466;2024-02-23T09:15:16;2.60;;;2.60;;
10096;SDS011;5087;42.662;23.466;2024-02-23T09:17:43;2.40;;;2.40;;
10096;SDS011;5087;42.662;23.466;2024-02-23T09:20:11;2.50;;;2.50;;
10096;SDS011;5087;42.662;23.466;2024-02-23T09:22:39;2.10;;;2.10;;
10096;SDS011;5087;42.662;23.466;2024-02-23T09:25:07;2.20;;;2.20;;
10096;SDS011;5087;42.662;23.466;2024-02-23T09:27:41;2.00;;;2.00;;
10096;SDS011;5087;42.662;23.466;2024-02-23T09:30:10;2.10;;;2.10;;
10096;SDS011;5087;42.662;23.466;2024-02-23T09:33:00;1.70;;;1.70;;
10096;SDS011;5087;42.662;23.466;2024-02-23T09:35:27;1.40;;;1.40;;
10096;SDS011;5087;42.662;23.466;2024-02-23T09:37:54;1.50;;;1.50;;
10096;SDS011;5087;42.662;23.466;2024-02-23T09:40:21;1.70;;;1.70;;
10096;SDS011;5087;42.662;23.466;2024-02-23T09:42:48;1.80;;;1.80;;
10096;SDS011;5087;42.662;23.466;2024-02-23T09:45:19;1.70;;;1.70;;
10096;SDS011;5087;42.662;23.466;2024-02-23T09:47:48;1.57;;;1.57;;
10096;SDS011;5087;42.662;23.466;2024-02-23T09:50:16;1.70;;;1.70;;
10096;SDS011;5087;42.662;23.466;2024-02-23T09:52:47;1.60;;;1.60;;
10096;SDS011;5087;42.662;23.466;2024-02-23T09:55:15;1.30;;;1.30;;
10096;SDS011;5087;42.662;23.466;2024-02-23T09:57:42;1.40;;;1.40;;
10096;SDS011;5087;42.662;23.466;2024-02-23T10:00:17;1.20;;;1.20;;
10096;SDS011;5087;42.662;23.466;2024-02-23T10:02:48;1.23;;;1.23;;
10096;SDS011;5087;42.662;23.466;2024-02-23T10:05:17;1.27;;;1.27;;
10096;SDS011;5087;42.662;23.466;2024-02-23T10:07:44;1.30;;;1.30;;
10096;SDS011;5087;42.662;23.466;2024-02-23T10:10:12;1.40;;;1.40;;
10096;SDS011;5087;42.662;23.466;2024-02-23T10:12:41;1.20;;;1.20;;
10096;SDS011;5087;42.662;23.466;2024-02-23T10:15:08;1.10;;;1.10;;
10096;SDS011;5087;42.662;23.466;2024-02-23T10:17:41;1.10;;;1.10;;
10096;SDS011;5087;42.662;23.466;2024-02-23T10:20:08;1.10;;;1.10;;
10096;SDS011;5087;42.662;23.466;2024-02-23T10:22:39;1.00;;;1.00;;
10096;SDS011;5087;42.662;23.466;2024-02-23T10:25:07;1.00;;;1.00;;
10096;SDS011;5087;42.662;23.466;2024-02-23T10:27:34;1.00;;;1.00;;
10096;SDS011;5087;42.662;23.466;2024-02-23T10:30:01;1.10;;;1.10;;
10096;SDS011;5087;42.662;23.466;2024-02-23T10:32:30;0.90;;;0.90;;
10096;SDS011;5087;42.662;23.466;2024-02-23T10:34:58;1.00;;;1.00;;
10096;SDS011;5087;42.662;23.466;2024-02-23T10:37:26;0.90;;;0.90;;
10096;SDS011;5087;42.662;23.466;2024-02-23T10:39:59;1.00;;;1.00;;
10096;SDS011;5087;42.662;23.466;2024-02-23T10:42:29;0.90;;;0.90;;
10096;SDS011;5087;42.662;23.466;2024-02-23T10:44:58;1.00;;;1.00;;
10096;SDS011;5087;42.662;23.466;2024-02-23T10:47:29;1.00;;;1.00;;
10096;SDS011;5087;42.662;23.466;2024-02-23T10:49:57;1.10;;;1.10;;
10096;SDS011;5087;42.662;23.466;2024-02-23T10:52:26;1.00;;;1.00;;
10096;SDS011;5087;42.662;23.466;2024-02-23T10:54:53;1.10;;;1.10;;
10096;SDS011;5087;42.662;23.466;2024-02-23T10:57:22;1.10;;;1.10;;
10096;SDS011;5087;42.662;23.466;2024-02-23T10:59:52;1.00;;;1.00;;
10096;SDS011;5087;42.662;23.466;2024-02-23T11:02:19;1.00;;;1.00;;
10096;SDS011;5087;42.662;23.466;2024-02-23T11:04:47;1.00;;;1.00;;
10096;SDS011;5087;42.662;23.466;2024-02-23T11:07:17;1.00;;;1.00;;
10096;SDS011;5087;42.662;23.466;2024-02-23T11:09:48;1.00;;;1.00;;
10096;SDS011;5087;42.662;23.466;2024-02-23T11:12:23;0.90;;;0.90;;
10096;SDS011;5087;42.662;23.466;2024-02-23T11:14:51;1.00;;;1.00;;
10096;SDS011;5087;42.662;23.466;2024-02-23T11:17:18;1.10;;;1.10;;
10096;SDS011;5087;42.662;23.466;2024-02-23T11:19:45;0.90;;;0.90;;
10096;SDS011;5087;42.662;23.466;2024-02-23T11:22:12;1.00;;;1.00;;
10096;SDS011;5087;42.662;23.466;2024-02-23T11:24:45;0.90;;;0.90;;
10096;SDS011;5087;42.662;23.466;2024-02-23T11:27:13;0.90;;;0.90;;
10096;SDS011;5087;42.662;23.466;2024-02-23T11:29:44;1.00;;;1.00;;
10096;SDS011;5087;42.662;23.466;2024-02-23T11:32:14;1.00;;;1.00;;
10096;SDS011;5087;42.662;23.466;2024-02-23T11:34:53;1.00;;;1.00;;
10096;SDS011;5087;42.662;23.466;2024-02-23T11:37:29;0.93;;;0.93;;
10096;SDS011;5087;42.662;23.466;2024-02-23T11:39:57;0.90;;;0.90;;
10096;SDS011;5087;42.662;23.466;2024-02-23T11:42:24;1.00;;;1.00;;
10096;SDS011;5087;42.662;23.466;2024-02-23T11:44:52;1.00;;;1.00;;
10096;SDS011;5087;42.662;23.466;2024-02-23T11:47:28;0.90;;;0.90;;
10096;SDS011;5087;42.662;23.466;2024-02-23T11:49:55;1.00;;;1.00;;
10096;SDS011;5087;42.662;23.466;2024-02-23T11:52:22;1.10;;;1.10;;
10096;SDS011;5087;42.662;23.466;2024-02-23T11:54:49;1.00;;;1.00;;
10096;SDS011;5087;42.662;23.466;2024-02-23T11:57:18;0.90;;;0.90;;
10096;SDS011;5087;42.662;23.466;2024-02-23T11:59:45;0.90;;;0.90;;
10096;SDS011;5087;42.662;23.466;2024-02-23T12:02:14;0.93;;;0.93;;
10096;SDS011;5087;42.662;23.466;2024-02-23T12:04:41;0.90;;;0.90;;
10096;SDS011;5087;42.662;23.466;2024-02-23T12:07:08;0.90;;;0.90;;
10096;SDS011;5087;42.662;23.466;2024-02-23T12:09:35;0.90;;;0.90;;
10096;SDS011;5087;42.662;23.466;2024-02-23T12:12:02;0.90;;;0.90;;
10096;SDS011;5087;42.662;23.466;2024-02-23T12:14:35;1.00;;;1.00;;
10096;SDS011;5087;42.662;23.466;2024-02-23T12:17:02;0.80;;;0.80;;
10096;SDS011;5087;42.662;23.466;2024-02-23T12:19:32;0.90;;;0.90;;
10096;SDS011;5087;42.662;23.466;2024-02-23T12:22:01;1.00;;;1.00;;
10096;SDS011;5087;42.662;23.466;2024-02-23T12:24:31;1.00;;;1.00;;
10096;SDS011;5087;42.662;23.466;2024-02-23T12:26:58;1.00;;;1.00;;
10096;SDS011;5087;42.662;23.466;2024-02-23T12:29:25;0.90;;;0.90;;
10096;SDS011;5087;42.662;23.466;2024-02-23T12:32:01;0.90;;;0.90;;
10096;SDS011;5087;42.662;23.466;2024-02-23T12:34:38;0.90;;;0.90;;
10096;SDS011;5087;42.662;23.466;2024-02-23T12:37:05;0.80;;;0.80;;
10096;SDS011;5087;42.662;23.466;2024-02-23T12:39:34;0.90;;;0.90;;
10096;SDS011;5087;42.662;23.466;2024-02-23T12:42:01;1.00;;;1.00;;
10096;SDS011;5087;42.662;23.466;2024-02-23T12:44:28;0.90;;;0.90;;
10096;SDS011;5087;42.662;23.466;2024-02-23T12:46:58;0.90;;;0.90;;
10096;SDS011;5087;42.662;23.466;2024-02-23T12:49:25;0.90;;;0.90;;
10096;SDS011;5087;42.662;23.466;2024-02-23T12:51:54;1.00;;;1.00;;
10096;SDS011;5087;42.662;23.466;2024-02-23T12:54:20;0.90;;;0.90;;
10096;SDS011;5087;42.662;23.466;2024-02-23T12:56:47;0.90;;;0.90;;
10096;SDS011;5087;42.662;23.466;2024-02-23T12:59:15;0.80;;;0.80;;
10096;SDS011;5087;42.662;23.466;2024-02-23T13:01:44;0.90;;;0.90;;
10096;SDS011;5087;42.662;23.466;2024-02-23T13:04:11;0.90;;;0.90;;
10096;SDS011;5087;42.662;23.466;2024-02-23T13:06:39;1.00;;;1.00;;
10096;SDS011;5087;42.662;23.466;2024-02-23T13:09:09;0.90;;;0.90;;
10096;SDS011;5087;42.662;23.466;2024-02-23T13:11:41;0.80;;;0.80;;
10096;SDS011;5087;42.662;23.466;2024-02-23T13:14:08;0.90;;;0.90;;
10096;SDS011;5087;42.662;23.466;2024-02-23T13:16:35;1.00;;;1.00;;
10096;SDS011;5087;42.662;23.466;2024-02-23T13:19:02;0.97;;;0.97;;
10096;SDS011;5087;42.662;23.466;2024-02-23T13:21:29;0.93;;;0.93;;
10096;SDS011;5087;42.662;23.466;2024-02-23T13:23:58;0.90;;;0.90;;
10096;SDS011;5087;42.662;23.466;2024-02-23T13:26:26;0.90;;;0.90;;
10096;SDS011;5087;42.662;23.466;2024-02-23T13:28:54;0.90;;;0.90;;
10096;SDS011;5087;42.662;23.466;2024-02-23T13:31:20;0.87;;;0.87;;
10096;SDS011;5087;42.662;23.466;2024-02-23T13:33:47;0.80;;;0.80;;
10096;SDS011;5087;42.662;23.466;2024-02-23T13:36:14;0.70;;;0.70;;
10096;SDS011;5087;42.662;23.466;2024-02-23T13:38:41;0.87;;;0.87;;
10096;SDS011;5087;42.662;23.466;2024-02-23T13:41:08;0.80;;;0.80;;
10096;SDS011;5087;42.662;23.466;2024-02-23T13:43:36;0.80;;;0.80;;
10096;SDS011;5087;42.662;23.466;2024-02-23T13:46:05;0.90;;;0.90;;
10096;SDS011;5087;42.662;23.466;2024-02-23T13:48:32;0.80;;;0.80;;
10096;SDS011;5087;42.662;23.466;2024-02-23T13:50:59;0.90;;;0.90;;
10096;SDS011;5087;42.662;23.466;2024-02-23T13:53:31;1.00;;;1.00;;
10096;SDS011;5087;42.662;23.466;2024-02-23T13:55:59;1.00;;;1.00;;
10096;SDS011;5087;42.662;23.466;2024-02-23T13:58:27;0.90;;;0.90;;
10096;SDS011;5087;42.662;23.466;2024-02-23T14:00:55;1.00;;;1.00;;
10096;SDS011;5087;42.662;23.466;2024-02-23T14:03:25;0.93;;;0.93;;
10096;SDS011;5087;42.662;23.466;2024-02-23T14:05:52;1.00;;;1.00;;
10096;SDS011;5087;42.662;23.466;2024-02-23T14:08:19;1.00;;;1.00;;
10096;SDS011;5087;42.662;23.466;2024-02-23T14:10:46;1.10;;;1.10;;
10096;SDS011;5087;42.662;23.466;2024-02-23T14:13:13;1.00;;;1.00;;
10096;SDS011;5087;42.662;23.466;2024-02-23T14:15:40;1.00;;;1.00;;
10096;SDS011;5087;42.662;23.466;2024-02-23T14:18:09;0.90;;;0.90;;
10096;SDS011;5087;42.662;23.466;2024-02-23T14:20:36;0.90;;;0.90;;
10096;SDS011;5087;42.662;23.466;2024-02-23T14:23:05;1.00;;;1.00;;
10096;SDS011;5087;42.662;23.466;2024-02-23T14:25:32;0.90;;;0.90;;
10096;SDS011;5087;42.662;23.466;2024-02-23T14:27:59;1.00;;;1.00;;
10096;SDS011;5087;42.662;23.466;2024-02-23T14:30:26;0.90;;;0.90;;
10096;SDS011;5087;42.662;23.466;2024-02-23T14:32:55;0.90;;;0.90;;
10096;SDS011;5087;42.662;23.466;2024-02-23T14:35:23;1.00;;;1.00;;
10096;SDS011;5087;42.662;23.466;2024-02-23T14:37:51;1.00;;;1.00;;
10096;SDS011;5087;42.662;23.466;2024-02-23T14:40:17;0.80;;;0.80;;
10096;SDS011;5087;42.662;23.466;2024-02-23T14:42:44;0.80;;;0.80;;
10096;SDS011;5087;42.662;23.466;2024-02-23T14:45:13;0.80;;;0.80;;
10096;SDS011;5087;42.662;23.466;2024-02-23T14:47:42;0.80;;;0.80;;
10096;SDS011;5087;42.662;23.466;2024-02-23T14:50:09;0.80;;;0.80;;
10096;SDS011;5087;42.662;23.466;2024-02-23T14:52:40;0.90;;;0.90;;
10096;SDS011;5087;42.662;23.466;2024-02-23T14:55:09;0.80;;;0.80;;